sensor_id;sensor_type;location;lat;lon;timestamp;temperature;humidity
42885;DHT22;28534;48.100;11.584;2023-04-01T00:03:08;20.70;58.10
42885;DHT22;28534;48.100;11.584;2023-04-01T00:08:11;20.70;58.10
42885;DHT22;28534;48.100;11.584;2023-04-01T00:13:13;20.60;58.10
42885;DHT22;28534;48.100;11.584;2023-04-01T00:18:15;20.70;58.20
42885;DHT22;28534;48.100;11.584;2023-04-01T00:23:19;20.60;58.20
42885;DHT22;28534;48.100;11.584;2023-04-01T00:28:21;20.60;58.30
42885;DHT22;28534;48.100;11.584;2023-04-01T00:33:22;20.60;58.30
42885;DHT22;28534;48.100;11.584;2023-04-01T00:38:26;20.60;58.30
42885;DHT22;28534;48.100;11.584;2023-04-01T00:43:28;20.60;58.30
42885;DHT22;28534;48.100;11.584;2023-04-01T00:48:33;20.60;58.40
42885;DHT22;28534;48.100;11.584;2023-04-01T00:53:41;20.60;58.40
42885;DHT22;28534;48.100;11.584;2023-04-01T00:58:47;20.60;58.40
42885;DHT22;28534;48.100;11.584;2023-04-01T01:03:50;20.60;58.40
42885;DHT22;28534;48.100;11.584;2023-04-01T01:09:12;20.60;58.40
42885;DHT22;28534;48.100;11.584;2023-04-01T01:14:25;20.60;58.50
42885;DHT22;28534;48.100;11.584;2023-04-01T01:19:52;20.60;58.50
42885;DHT22;28534;48.100;11.584;2023-04-01T01:25:12;20.60;58.50
42885;DHT22;28534;48.100;11.584;2023-04-01T01:30:28;20.60;58.60
42885;DHT22;28534;48.100;11.584;2023-04-01T01:35:40;20.60;58.60
42885;DHT22;28534;48.100;11.584;2023-04-01T01:40:45;20.60;58.10
42885;DHT22;28534;48.100;11.584;2023-04-01T01:45:50;20.60;58.60
42885;DHT22;28534;48.100;11.584;2023-04-01T01:50:55;20.60;58.60
42885;DHT22;28534;48.100;11.584;2023-04-01T01:55:57;20.60;58.70
42885;DHT22;28534;48.100;11.584;2023-04-01T02:00:59;20.60;58.70
42885;DHT22;28534;48.100;11.584;2023-04-01T02:06:06;20.60;58.90
42885;DHT22;28534;48.100;11.584;2023-04-01T02:11:11;20.60;58.90
42885;DHT22;28534;48.100;11.584;2023-04-01T02:16:15;20.60;58.90
42885;DHT22;28534;48.100;11.584;2023-04-01T02:21:24;20.60;58.90
42885;DHT22;28534;48.100;11.584;2023-04-01T02:26:27;20.60;59.00
42885;DHT22;28534;48.100;11.584;2023-04-01T02:31:30;20.60;59.00
42885;DHT22;28534;48.100;11.584;2023-04-01T02:36:35;20.60;59.00
42885;DHT22;28534;48.100;11.584;2023-04-01T02:41:40;20.60;59.00
42885;DHT22;28534;48.100;11.584;2023-04-01T02:46:42;20.60;58.90
42885;DHT22;28534;48.100;11.584;2023-04-01T02:51:45;20.60;58.90
42885;DHT22;28534;48.100;11.584;2023-04-01T02:56:47;20.70;58.70
42885;DHT22;28534;48.100;11.584;2023-04-01T03:01:49;20.80;58.70
42885;DHT22;28534;48.100;11.584;2023-04-01T03:06:52;20.80;58.50
42885;DHT22;28534;48.100;11.584;2023-04-01T03:11:53;20.80;58.50
42885;DHT22;28534;48.100;11.584;2023-04-01T03:16:55;20.80;58.40
42885;DHT22;28534;48.100;11.584;2023-04-01T03:21:58;20.90;58.60
42885;DHT22;28534;48.100;11.584;2023-04-01T03:27:00;20.90;58.40
42885;DHT22;28534;48.100;11.584;2023-04-01T03:32:02;21.10;58.40
42885;DHT22;28534;48.100;11.584;2023-04-01T03:37:05;21.10;58.30
42885;DHT22;28534;48.100;11.584;2023-04-01T03:42:06;21.10;58.30
42885;DHT22;28534;48.100;11.584;2023-04-01T03:47:08;21.10;58.30
42885;DHT22;28534;48.100;11.584;2023-04-01T03:52:11;21.20;58.30
42885;DHT22;28534;48.100;11.584;2023-04-01T03:57:13;21.20;58.20
42885;DHT22;28534;48.100;11.584;2023-04-01T04:02:15;21.20;58.10
42885;DHT22;28534;48.100;11.584;2023-04-01T04:07:18;21.30;58.10
42885;DHT22;28534;48.100;11.584;2023-04-01T04:12:20;21.30;58.10
42885;DHT22;28534;48.100;11.584;2023-04-01T04:17:22;21.30;58.00
42885;DHT22;28534;48.100;11.584;2023-04-01T04:22:25;21.30;58.10
42885;DHT22;28534;48.100;11.584;2023-04-01T04:27:27;21.30;58.00
42885;DHT22;28534;48.100;11.584;2023-04-01T04:32:30;21.30;58.00
42885;DHT22;28534;48.100;11.584;2023-04-01T04:37:33;21.40;57.90
42885;DHT22;28534;48.100;11.584;2023-04-01T04:42:34;21.40;57.90
42885;DHT22;28534;48.100;11.584;2023-04-01T04:47:36;21.40;57.80
42885;DHT22;28534;48.100;11.584;2023-04-01T04:52:39;21.40;57.80
42885;DHT22;28534;48.100;11.584;2023-04-01T04:57:41;21.50;57.70
42885;DHT22;28534;48.100;11.584;2023-04-01T05:02:43;21.40;57.70
42885;DHT22;28534;48.100;11.584;2023-04-01T05:07:46;21.40;57.80
42885;DHT22;28534;48.100;11.584;2023-04-01T05:12:49;21.40;57.90
42885;DHT22;28534;48.100;11.584;2023-04-01T05:17:50;21.40;57.90
42885;DHT22;28534;48.100;11.584;2023-04-01T05:22:57;21.40;57.90
42885;DHT22;28534;48.100;11.584;2023-04-01T05:27:58;21.40;57.90
42885;DHT22;28534;48.100;11.584;2023-04-01T05:33:00;21.50;57.90
42885;DHT22;28534;48.100;11.584;2023-04-01T05:38:03;21.50;58.10
42885;DHT22;28534;48.100;11.584;2023-04-01T05:43:05;21.50;58.00
42885;DHT22;28534;48.100;11.584;2023-04-01T05:48:07;21.50;58.70
42885;DHT22;28534;48.100;11.584;2023-04-01T05:53:10;21.50;58.20
42885;DHT22;28534;48.100;11.584;2023-04-01T05:58:12;21.60;58.40
42885;DHT22;28534;48.100;11.584;2023-04-01T06:03:13;21.50;58.50
42885;DHT22;28534;48.100;11.584;2023-04-01T06:08:17;21.50;58.90
42885;DHT22;28534;48.100;11.584;2023-04-01T06:13:26;21.50;58.90
42885;DHT22;28534;48.100;11.584;2023-04-01T06:18:54;21.50;59.40
42885;DHT22;28534;48.100;11.584;2023-04-01T06:24:15;21.40;59.20
42885;DHT22;28534;48.100;11.584;2023-04-01T06:29:40;21.40;59.50
42885;DHT22;28534;48.100;11.584;2023-04-01T06:40:44;21.40;60.60
42885;DHT22;28534;48.100;11.584;2023-04-01T06:45:54;21.40;60.30
42885;DHT22;28534;48.100;11.584;2023-04-01T06:51:05;21.40;59.70
42885;DHT22;28534;48.100;11.584;2023-04-01T06:56:11;21.40;60.10
42885;DHT22;28534;48.100;11.584;2023-04-01T07:01:18;21.40;60.10
42885;DHT22;28534;48.100;11.584;2023-04-01T07:06:27;21.40;60.00
42885;DHT22;28534;48.100;11.584;2023-04-01T07:11:34;21.40;59.90
42885;DHT22;28534;48.100;11.584;2023-04-01T07:16:41;21.40;59.90
42885;DHT22;28534;48.100;11.584;2023-04-01T07:21:47;21.40;59.80
42885;DHT22;28534;48.100;11.584;2023-04-01T07:26:55;21.40;59.70
42885;DHT22;28534;48.100;11.584;2023-04-01T07:32:18;21.40;59.80
42885;DHT22;28534;48.100;11.584;2023-04-01T07:37:28;21.40;64.50
42885;DHT22;28534;48.100;11.584;2023-04-01T07:42:37;21.40;61.60
42885;DHT22;28534;48.100;11.584;2023-04-01T07:47:54;21.40;61.50
42885;DHT22;28534;48.100;11.584;2023-04-01T07:53:08;21.40;61.40
42885;DHT22;28534;48.100;11.584;2023-04-01T07:58:21;21.40;64.00
42885;DHT22;28534;48.100;11.584;2023-04-01T08:03:38;21.40;64.50
42885;DHT22;28534;48.100;11.584;2023-04-01T08:08:51;21.40;64.40
42885;DHT22;28534;48.100;11.584;2023-04-01T08:14:05;21.40;62.90
42885;DHT22;28534;48.100;11.584;2023-04-01T08:19:15;21.40;63.90
42885;DHT22;28534;48.100;11.584;2023-04-01T08:24:27;21.30;62.80
42885;DHT22;28534;48.100;11.584;2023-04-01T08:29:37;21.40;63.70
42885;DHT22;28534;48.100;11.584;2023-04-01T08:34:43;21.40;63.20
42885;DHT22;28534;48.100;11.584;2023-04-01T08:39:48;21.40;62.90
42885;DHT22;28534;48.100;11.584;2023-04-01T08:50:49;21.40;62.70
42885;DHT22;28534;48.100;11.584;2023-04-01T08:56:06;21.40;62.60
42885;DHT22;28534;48.100;11.584;2023-04-01T09:01:22;21.40;62.50
42885;DHT22;28534;48.100;11.584;2023-04-01T09:06:38;21.40;62.50
42885;DHT22;28534;48.100;11.584;2023-04-01T09:11:59;21.40;62.70
42885;DHT22;28534;48.100;11.584;2023-04-01T09:17:42;21.40;63.90
42885;DHT22;28534;48.100;11.584;2023-04-01T09:22:57;21.50;64.10
42885;DHT22;28534;48.100;11.584;2023-04-01T09:28:09;21.50;64.10
42885;DHT22;28534;48.100;11.584;2023-04-01T09:33:33;21.40;63.90
42885;DHT22;28534;48.100;11.584;2023-04-01T09:38:54;21.50;63.90
